Forside
METAR-TAF:

METAR-TAF

Lufthavne :

Rochelle Municipal Airport (Koritz Field)

Rochelle, Illinois, USA

Breddekreds: 41-53-35N, længdekreds: 089-04-42W, højde: 238 m

Aktuelle vejr

Denne rapport blev lavet for 29 minutter siden, kl. 20:55 UTC
Vind 7 kt fra vest
Temperatur 16°C
Fugtighed 42%
Tryk 1020 hPa
Sigt: 16.1 km
Brudte skyer i en højde af 5500 ft

METAR: KRPJ 052055Z AUTO 27007KT 10SM BKN055 16/03 A3013 RMK AO2 T01630034 TSNO

Tid: 16:24 (21:24 UTC)


TAF: fraværende

Vejrobservationer og prognoser fra mere end 4000 lufthavne (METAR og TAF).

De gule og røde prikker repræsenterer de meteorologiske stationer.

Flyt musen over at se navnet på stationen.

Så klik over at se vejr observationer og prognoser.

At skifte det kort: Klik på de grønne knapper med et sort kors for at zoome ind; på den grønne knap med en bindestreg for at zoome ud; eller på de grønne pile for tilstødende kort.


METAR-TAF: